createdAt,value
2023-04-10T00:04:20.635Z,99.90
2023-04-10T00:06:48.945Z,99.90
2023-04-10T00:09:15.770Z,99.90
2023-04-10T00:11:42.550Z,99.90
2023-04-10T00:14:09.264Z,99.90
2023-04-10T00:16:36.111Z,99.90
2023-04-10T00:19:02.843Z,99.90
2023-04-10T00:21:29.527Z,99.90
2023-04-10T00:23:56.458Z,99.90
2023-04-10T00:26:23.932Z,99.90
2023-04-10T00:28:50.727Z,99.90
2023-04-10T00:31:17.456Z,99.90
2023-04-10T00:33:44.142Z,99.90
2023-04-10T00:36:11.138Z,99.90
2023-04-10T00:38:38.047Z,99.90
2023-04-10T00:41:05.048Z,99.90
2023-04-10T00:43:31.777Z,99.90
2023-04-10T00:45:58.876Z,99.90
2023-04-10T00:48:26.420Z,99.90
2023-04-10T00:50:53.326Z,99.90
2023-04-10T00:53:20.272Z,99.90
2023-04-10T00:55:48.055Z,99.90
2023-04-10T00:58:14.877Z,99.90
2023-04-10T01:00:41.875Z,99.90
2023-04-10T01:03:09.633Z,99.90
2023-04-10T01:05:55.728Z,99.90
2023-04-10T01:08:25.375Z,99.90
2023-04-10T01:11:13.103Z,99.90
2023-04-10T01:13:49.920Z,99.90
2023-04-10T01:16:22.473Z,99.90
2023-04-10T01:19:15.039Z,99.90
2023-04-10T01:21:42.403Z,99.90
2023-04-10T01:24:32.171Z,99.90
2023-04-10T01:27:20.925Z,99.90
2023-04-10T01:29:52.316Z,99.90
2023-04-10T01:32:22.120Z,99.90
2023-04-10T01:34:52.272Z,99.90
2023-04-10T01:37:29.708Z,99.90
2023-04-10T01:40:06.739Z,99.90
2023-04-10T01:42:47.452Z,99.90
2023-04-10T01:45:19.814Z,99.90
2023-04-10T01:47:46.988Z,99.90
2023-04-10T01:50:15.357Z,99.90
2023-04-10T01:52:44.070Z,99.90
2023-04-10T01:55:10.944Z,99.90
2023-04-10T01:57:37.725Z,99.90
2023-04-10T02:00:05.028Z,99.90
2023-04-10T02:02:33.124Z,99.90
2023-04-10T02:05:00.524Z,99.90
2023-04-10T02:07:27.340Z,99.90
2023-04-10T02:09:59.945Z,99.90
2023-04-10T02:12:53.814Z,99.90
2023-04-10T02:15:23.075Z,99.90
2023-04-10T02:17:52.165Z,99.90
2023-04-10T02:20:19.338Z,99.90
2023-04-10T02:22:47.215Z,99.90
2023-04-10T02:25:14.845Z,99.90
2023-04-10T02:27:42.308Z,99.90
2023-04-10T02:30:09.381Z,99.90
2023-04-10T02:32:37.039Z,99.90
2023-04-10T02:35:04.133Z,99.90
2023-04-10T02:37:31.422Z,99.90
2023-04-10T02:39:58.226Z,99.90
2023-04-10T02:42:24.977Z,99.90
2023-04-10T02:47:19.079Z,99.90
2023-04-10T02:49:45.986Z,99.90
2023-04-10T02:54:40.369Z,99.90
2023-04-10T02:57:07.207Z,99.90
2023-04-10T02:59:34.044Z,99.90
2023-04-10T03:02:01.061Z,99.90
2023-04-10T03:06:56.050Z,99.90
2023-04-10T03:11:49.851Z,99.90
2023-04-10T03:14:17.231Z,99.90
2023-04-10T03:16:44.229Z,99.90
2023-04-10T03:19:12.690Z,99.90
2023-04-10T03:21:39.485Z,99.90
2023-04-10T03:24:07.108Z,99.90
2023-04-10T03:26:33.869Z,99.90
2023-04-10T03:29:00.660Z,99.90
2023-04-10T03:31:27.937Z,99.90
2023-04-10T03:36:22.188Z,99.90
2023-04-10T03:38:48.946Z,99.90
2023-04-10T03:43:42.761Z,99.90
2023-04-10T03:46:09.506Z,99.90
2023-04-10T03:48:36.390Z,99.90
2023-04-10T03:51:03.260Z,99.90
2023-04-10T03:53:30.055Z,99.90
2023-04-10T03:55:56.790Z,99.90
2023-04-10T03:58:23.538Z,99.90
2023-04-10T04:00:50.418Z,99.90
2023-04-10T04:05:44.617Z,99.90
2023-04-10T04:10:40.640Z,99.90
2023-04-10T04:13:07.332Z,99.90
2023-04-10T04:15:34.059Z,99.90
2023-04-10T04:18:00.905Z,99.90
2023-04-10T04:20:27.687Z,99.90
2023-04-10T04:22:54.464Z,99.90
2023-04-10T04:27:48.334Z,99.90
2023-04-10T04:30:15.444Z,99.90
2023-04-10T04:32:42.233Z,99.90
2023-04-10T04:35:09.465Z,99.90
2023-04-10T04:37:36.265Z,99.90
2023-04-10T04:40:03.199Z,99.90
2023-04-10T04:42:29.921Z,99.90
2023-04-10T04:47:24.407Z,99.90
2023-04-10T04:49:51.293Z,99.90
2023-04-10T04:52:18.146Z,99.90
2023-04-10T04:54:44.912Z,99.90
2023-04-10T04:57:11.672Z,99.90
2023-04-10T05:02:05.758Z,99.90
2023-04-10T05:04:32.615Z,99.90
2023-04-10T05:06:59.388Z,99.90
2023-04-10T05:09:26.077Z,99.90
2023-04-10T05:11:54.384Z,99.90
2023-04-10T05:14:22.307Z,99.90
2023-04-10T05:16:49.072Z,99.90
2023-04-10T05:19:16.232Z,99.90
2023-04-10T05:21:43.270Z,99.90
2023-04-10T05:24:10.070Z,99.90
2023-04-10T05:26:36.897Z,99.90
2023-04-10T05:29:04.158Z,99.90
2023-04-10T05:31:30.897Z,99.90
2023-04-10T05:33:57.669Z,99.90
2023-04-10T05:38:51.560Z,99.90
2023-04-10T05:41:18.328Z,99.90
2023-04-10T05:43:45.093Z,99.90
2023-04-10T05:46:11.851Z,99.90
2023-04-10T05:48:39.089Z,99.90
2023-04-10T05:51:06.173Z,99.90
2023-04-10T05:53:33.005Z,99.90
2023-04-10T05:55:59.840Z,99.90
2023-04-10T05:58:27.710Z,99.90
2023-04-10T06:00:56.093Z,99.90
2023-04-10T06:03:23.904Z,99.90
2023-04-10T06:05:51.020Z,99.90
2023-04-10T06:08:17.769Z,99.90
2023-04-10T06:13:12.006Z,95.20
2023-04-10T06:15:38.734Z,93.10
2023-04-10T06:18:05.652Z,91.60
2023-04-10T06:20:32.413Z,90.50
2023-04-10T06:22:59.651Z,90.30
2023-04-10T06:25:26.676Z,90.10
2023-04-10T06:27:53.603Z,90.00
2023-04-10T06:30:20.566Z,89.80
2023-04-10T06:32:47.510Z,89.80
2023-04-10T06:35:14.285Z,89.80
2023-04-10T06:37:41.020Z,89.70
2023-04-10T06:40:13.673Z,89.10
2023-04-10T06:42:41.433Z,89.00
2023-04-10T06:45:08.819Z,89.10
2023-04-10T06:47:35.700Z,88.40
2023-04-10T06:50:02.495Z,88.60
2023-04-10T06:52:29.461Z,88.10
2023-04-10T06:54:56.361Z,88.20
2023-04-10T06:57:23.123Z,88.60
2023-04-10T06:59:49.879Z,88.00
2023-04-10T07:02:16.625Z,87.40
2023-04-10T07:04:43.357Z,86.60
2023-04-10T07:07:12.545Z,86.40
2023-04-10T07:09:39.762Z,86.30
2023-04-10T07:12:06.535Z,85.80
2023-04-10T07:14:36.565Z,86.20
2023-04-10T07:17:03.358Z,86.00
2023-04-10T07:19:30.240Z,85.00
2023-04-10T07:21:57.660Z,85.00
2023-04-10T07:24:24.580Z,85.10
2023-04-10T07:26:51.342Z,84.20
2023-04-10T07:29:18.462Z,84.10
2023-04-10T07:31:45.335Z,83.70
2023-04-10T07:34:12.373Z,83.60
2023-04-10T07:36:39.132Z,83.60
2023-04-10T07:39:06.053Z,84.00
2023-04-10T07:41:32.989Z,83.10
2023-04-10T07:43:59.662Z,83.30
2023-04-10T07:46:27.517Z,82.50
2023-04-10T07:48:55.632Z,81.50
2023-04-10T07:51:22.808Z,80.80
2023-04-10T07:53:49.821Z,80.70
2023-04-10T07:56:18.404Z,81.00
2023-04-10T07:58:45.293Z,80.50
2023-04-10T08:01:12.363Z,80.30
2023-04-10T08:03:44.291Z,79.20
2023-04-10T08:06:11.909Z,79.80
2023-04-10T08:08:39.748Z,79.60
2023-04-10T08:11:29.349Z,79.10
2023-04-10T08:13:58.599Z,78.60
2023-04-10T08:16:26.613Z,78.80
2023-04-10T08:18:55.254Z,78.30
2023-04-10T08:21:23.167Z,78.90
2023-04-10T08:24:00.823Z,79.60
2023-04-10T08:26:28.476Z,77.50
2023-04-10T08:28:57.660Z,77.60
2023-04-10T08:31:25.748Z,78.30
2023-04-10T08:33:52.637Z,77.80
2023-04-10T08:36:20.375Z,78.30
2023-04-10T08:38:47.830Z,78.00
2023-04-10T08:41:19.480Z,77.60
2023-04-10T08:43:46.913Z,78.60
2023-04-10T08:46:14.859Z,78.00
2023-04-10T08:48:44.791Z,77.50
2023-04-10T08:51:20.152Z,77.80
2023-04-10T08:53:51.681Z,77.40
2023-04-10T08:56:19.030Z,76.50
2023-04-10T08:58:46.106Z,75.40
2023-04-10T09:01:12.954Z,75.40
2023-04-10T09:03:39.937Z,73.40
2023-04-10T09:06:07.022Z,74.60
2023-04-10T09:08:34.917Z,72.40
2023-04-10T09:11:01.681Z,72.60
2023-04-10T09:13:45.049Z,72.40
2023-04-10T09:16:13.780Z,72.00
2023-04-10T09:18:50.728Z,71.70
2023-04-10T09:21:21.608Z,72.00
2023-04-10T09:23:49.596Z,72.20
2023-04-10T09:26:33.467Z,71.80
2023-04-10T09:29:05.322Z,71.10
2023-04-10T09:31:36.037Z,70.00
2023-04-10T09:34:08.941Z,70.40
2023-04-10T09:36:37.313Z,70.60
2023-04-10T09:39:07.724Z,70.70
2023-04-10T09:41:34.855Z,70.60
2023-04-10T09:44:11.446Z,70.60
2023-04-10T09:46:38.534Z,69.70
2023-04-10T09:49:07.093Z,69.60
2023-04-10T09:51:37.452Z,70.40
2023-04-10T09:54:04.663Z,69.20
2023-04-10T09:56:34.259Z,69.00
2023-04-10T09:59:01.934Z,68.70
2023-04-10T10:01:29.969Z,69.00
2023-04-10T10:04:00.596Z,68.80
2023-04-10T10:06:27.882Z,69.70
2023-04-10T10:08:54.945Z,69.50
2023-04-10T10:11:24.734Z,69.50
2023-04-10T10:13:54.059Z,69.10
2023-04-10T10:16:25.700Z,68.30
2023-04-10T10:19:09.093Z,69.00
2023-04-10T10:21:36.800Z,69.70
2023-04-10T10:24:07.678Z,68.40
2023-04-10T10:26:35.710Z,68.70
2023-04-10T10:29:05.520Z,69.80
2023-04-10T10:31:34.030Z,68.60
2023-04-10T10:34:04.855Z,69.30
2023-04-10T10:36:34.862Z,69.80
2023-04-10T10:39:23.265Z,69.50
2023-04-10T10:42:13.657Z,69.30
2023-04-10T10:44:47.730Z,68.50
2023-04-10T10:47:24.555Z,68.40
2023-04-10T10:49:57.639Z,67.20
2023-04-10T10:52:44.311Z,66.60
2023-04-10T10:55:24.353Z,66.40
2023-04-10T10:58:01.980Z,66.30
2023-04-10T11:00:55.395Z,66.20
2023-04-10T11:03:22.700Z,66.10
2023-04-10T11:06:02.854Z,66.30
2023-04-10T11:08:48.651Z,66.20
2023-04-10T11:11:23.283Z,66.10
2023-04-10T11:13:49.965Z,66.60
2023-04-10T11:16:16.899Z,66.40
2023-04-10T11:18:47.261Z,66.90
2023-04-10T11:21:17.547Z,66.80
2023-04-10T11:23:50.190Z,66.40
2023-04-10T11:26:43.628Z,65.80
2023-04-10T11:29:16.167Z,66.30
2023-04-10T11:32:10.145Z,66.80
2023-04-10T11:34:44.787Z,66.80
2023-04-10T11:37:23.106Z,67.10
2023-04-10T11:40:03.967Z,67.70
2023-04-10T11:42:30.766Z,68.10
2023-04-10T11:44:59.857Z,68.10
2023-04-10T11:47:26.836Z,68.60
2023-04-10T11:49:58.653Z,68.50
2023-04-10T11:52:25.985Z,67.40
2023-04-10T11:54:52.704Z,67.20
2023-04-10T11:57:19.422Z,67.60
2023-04-10T11:59:51.085Z,67.50
2023-04-10T12:02:17.862Z,68.00
2023-04-10T12:04:44.986Z,67.70
2023-04-10T12:07:12.122Z,67.30
2023-04-10T12:09:39.000Z,67.10
2023-04-10T12:12:07.800Z,68.20
2023-04-10T12:14:36.945Z,67.70
2023-04-10T12:17:05.015Z,67.80
2023-04-10T12:19:33.314Z,67.60
2023-04-10T12:22:01.976Z,68.10
2023-04-10T12:24:57.999Z,68.60
2023-04-10T12:27:29.294Z,67.80
2023-04-10T12:29:57.932Z,67.90
2023-04-10T12:32:27.158Z,67.80
2023-04-10T12:34:59.294Z,67.80
2023-04-10T12:37:46.556Z,66.50
2023-04-10T12:40:13.894Z,66.90
2023-04-10T12:42:41.909Z,67.60
2023-04-10T12:45:10.100Z,67.50
2023-04-10T12:47:54.299Z,68.30
2023-04-10T12:50:21.194Z,67.30
2023-04-10T12:53:03.757Z,66.40
2023-04-10T12:55:31.297Z,66.70
2023-04-10T12:57:58.170Z,67.20
2023-04-10T13:00:26.316Z,67.50
2023-04-10T13:02:53.352Z,66.90
2023-04-10T13:05:21.633Z,67.00
2023-04-10T13:07:52.670Z,67.50
2023-04-10T13:10:19.709Z,67.40
2023-04-10T13:12:47.326Z,67.50
2023-04-10T13:15:14.162Z,68.00
2023-04-10T13:17:41.727Z,67.50
2023-04-10T13:20:10.833Z,67.00
2023-04-10T13:22:37.618Z,66.40
2023-04-10T13:25:05.201Z,67.40
2023-04-10T13:27:31.990Z,66.70
2023-04-10T13:29:58.805Z,67.00
2023-04-10T13:32:25.646Z,66.90
2023-04-10T13:34:54.694Z,66.20
2023-04-10T13:37:21.578Z,66.20
2023-04-10T13:39:48.292Z,66.50
2023-04-10T13:44:42.356Z,66.80
2023-04-10T13:47:09.259Z,68.00
2023-04-10T13:49:36.141Z,67.40
2023-04-10T13:52:02.864Z,66.90
2023-04-10T13:54:29.644Z,66.40
2023-04-10T13:56:57.522Z,64.00
2023-04-10T13:59:24.220Z,64.10
2023-04-10T14:01:52.525Z,63.80
2023-04-10T14:04:19.727Z,62.30
2023-04-10T14:06:46.571Z,62.30
2023-04-10T14:09:13.297Z,62.30
2023-04-10T14:11:40.070Z,61.60
2023-04-10T14:14:06.856Z,61.50
2023-04-10T14:16:33.643Z,62.20
2023-04-10T14:19:00.469Z,62.00
2023-04-10T14:21:27.466Z,61.30
2023-04-10T14:23:54.236Z,61.30
2023-04-10T14:26:21.513Z,61.40
2023-04-10T14:28:48.332Z,60.80
2023-04-10T14:31:15.436Z,60.50
2023-04-10T14:33:42.165Z,61.00
2023-04-10T14:36:09.516Z,61.10
2023-04-10T14:38:36.891Z,61.40
2023-04-10T14:41:03.729Z,61.20
2023-04-10T14:43:30.485Z,61.60
2023-04-10T14:45:57.271Z,62.20
2023-04-10T14:48:24.105Z,61.70
2023-04-10T14:50:51.074Z,62.40
2023-04-10T14:53:17.825Z,61.90
2023-04-10T14:55:44.662Z,62.50
2023-04-10T14:58:11.473Z,62.50
2023-04-10T15:00:38.433Z,62.60
2023-04-10T15:03:06.534Z,63.10
2023-04-10T15:05:33.778Z,63.70
2023-04-10T15:08:00.678Z,63.50
2023-04-10T15:10:30.671Z,64.00
2023-04-10T15:12:57.361Z,64.40
2023-04-10T15:15:24.270Z,64.80
2023-04-10T15:17:50.993Z,64.70
2023-04-10T15:20:17.813Z,64.80
2023-04-10T15:22:45.051Z,64.70
2023-04-10T15:25:14.781Z,64.40
2023-04-10T15:27:41.939Z,65.00
2023-04-10T15:30:09.038Z,64.80
2023-04-10T15:32:37.987Z,64.80
2023-04-10T15:35:05.469Z,65.00
2023-04-10T15:37:34.424Z,64.90
2023-04-10T15:40:01.189Z,65.30
2023-04-10T15:42:28.105Z,65.40
2023-04-10T15:44:54.950Z,65.90
2023-04-10T15:47:21.751Z,65.30
2023-04-10T15:49:48.557Z,65.60
2023-04-10T15:52:15.459Z,65.80
2023-04-10T15:54:42.478Z,65.90
2023-04-10T15:57:09.284Z,66.20
2023-04-10T15:59:37.360Z,66.00
2023-04-10T16:02:04.188Z,65.80
2023-04-10T16:04:31.735Z,65.40
2023-04-10T16:06:58.846Z,65.20
2023-04-10T16:09:26.851Z,64.50
2023-04-10T16:11:54.662Z,63.70
2023-04-10T16:14:22.518Z,63.90
2023-04-10T16:16:49.645Z,64.30
2023-04-10T16:19:16.401Z,64.60
2023-04-10T16:21:43.148Z,64.60
2023-04-10T16:24:09.883Z,64.50
2023-04-10T16:26:36.675Z,65.10
2023-04-10T16:29:03.451Z,64.80
2023-04-10T16:31:31.121Z,64.90
2023-04-10T16:33:57.957Z,64.40
2023-04-10T16:36:24.661Z,64.70
2023-04-10T16:38:51.917Z,65.10
2023-04-10T16:41:20.762Z,64.70
2023-04-10T16:43:47.951Z,64.70
2023-04-10T16:46:15.014Z,64.70
2023-04-10T16:48:41.983Z,64.90
2023-04-10T16:51:16.689Z,65.30
2023-04-10T16:53:43.791Z,65.30
2023-04-10T16:56:10.780Z,65.20
2023-04-10T16:58:38.095Z,64.90
2023-04-10T17:01:27.101Z,64.70
2023-04-10T17:03:54.959Z,64.40
2023-04-10T17:06:22.158Z,64.20
2023-04-10T17:08:48.982Z,64.40
2023-04-10T17:11:16.103Z,64.50
2023-04-10T17:13:43.343Z,64.10
2023-04-10T17:16:10.279Z,64.10
2023-04-10T17:18:37.104Z,64.20
2023-04-10T17:21:04.159Z,64.30
2023-04-10T17:23:30.890Z,64.50
2023-04-10T17:25:57.663Z,64.60
2023-04-10T17:28:24.451Z,64.70
2023-04-10T17:30:51.129Z,64.80
2023-04-10T17:33:17.819Z,64.70
2023-04-10T17:35:44.768Z,64.80
2023-04-10T17:38:11.493Z,65.00
2023-04-10T17:43:08.020Z,65.40
2023-04-10T17:45:38.987Z,65.60
2023-04-10T17:48:06.471Z,65.70
2023-04-10T17:50:33.549Z,65.40
2023-04-10T17:53:00.888Z,65.70
2023-04-10T17:55:27.767Z,65.70
2023-04-10T17:57:56.790Z,65.90
2023-04-10T18:00:23.829Z,66.20
2023-04-10T18:02:52.927Z,66.40
2023-04-10T18:07:47.413Z,66.70
2023-04-10T18:10:14.542Z,66.70
2023-04-10T18:12:41.874Z,66.70
2023-04-10T18:15:09.494Z,66.90
2023-04-10T18:17:39.174Z,67.00
2023-04-10T18:20:07.180Z,66.80
2023-04-10T18:22:33.958Z,66.90
2023-04-10T18:25:03.358Z,67.10
2023-04-10T18:27:31.650Z,67.20
2023-04-10T18:29:58.601Z,67.40
2023-04-10T18:32:25.537Z,67.10
2023-04-10T18:34:52.376Z,67.60
2023-04-10T18:37:19.118Z,67.80
2023-04-10T18:39:45.906Z,67.70
2023-04-10T18:42:12.599Z,67.80
2023-04-10T18:44:39.507Z,67.50
2023-04-10T18:47:06.345Z,67.70
2023-04-10T18:49:33.262Z,68.00
2023-04-10T18:52:00.632Z,68.00
2023-04-10T18:54:27.529Z,68.20
2023-04-10T18:56:54.378Z,68.30
2023-04-10T18:59:21.069Z,68.40
2023-04-10T19:01:47.864Z,68.40
2023-04-10T19:04:15.337Z,68.70
2023-04-10T19:06:43.770Z,68.80
2023-04-10T19:09:10.488Z,68.90
2023-04-10T19:11:38.211Z,68.80
2023-04-10T19:14:06.047Z,68.70
2023-04-10T19:19:05.146Z,69.70
2023-04-10T19:21:31.995Z,69.80
2023-04-10T19:23:58.780Z,71.20
2023-04-10T19:26:25.526Z,73.40
2023-04-10T19:28:52.237Z,72.90
2023-04-10T19:31:19.644Z,73.80
2023-04-10T19:33:46.491Z,73.50
2023-04-10T19:36:14.792Z,73.40
2023-04-10T19:38:44.467Z,73.00
2023-04-10T19:41:17.858Z,72.20
2023-04-10T19:43:44.730Z,71.90
2023-04-10T19:46:21.235Z,72.10
2023-04-10T19:48:49.131Z,72.70
2023-04-10T19:51:16.243Z,74.40
2023-04-10T19:53:43.473Z,77.90
2023-04-10T19:56:10.244Z,80.60
2023-04-10T19:58:40.879Z,83.10
2023-04-10T20:01:08.919Z,87.20
2023-04-10T20:03:36.852Z,89.30
2023-04-10T20:06:04.956Z,91.80
2023-04-10T20:08:31.759Z,93.90
2023-04-10T20:10:58.728Z,95.70
2023-04-10T20:13:25.704Z,96.70
2023-04-10T20:15:52.630Z,97.30
2023-04-10T20:18:19.355Z,98.90
2023-04-10T20:20:46.228Z,98.80
2023-04-10T20:23:13.124Z,99.20
2023-04-10T20:25:39.875Z,99.90
2023-04-10T20:28:06.735Z,99.90
2023-04-10T20:30:34.710Z,99.90
2023-04-10T20:33:01.476Z,99.90
2023-04-10T20:35:28.325Z,99.90
2023-04-10T20:37:55.052Z,99.90
2023-04-10T20:40:21.836Z,99.90
2023-04-10T20:42:49.001Z,99.90
2023-04-10T20:45:15.934Z,99.90
2023-04-10T20:47:42.761Z,99.90
2023-04-10T20:50:12.682Z,99.90
2023-04-10T20:52:39.944Z,99.90
2023-04-10T20:55:06.991Z,99.90
2023-04-10T20:57:33.977Z,99.90
2023-04-10T21:00:00.908Z,99.90
2023-04-10T21:02:27.699Z,99.90
2023-04-10T21:04:54.504Z,99.90
2023-04-10T21:07:21.208Z,99.90
2023-04-10T21:09:47.889Z,99.90
2023-04-10T21:12:14.571Z,99.90
2023-04-10T21:14:41.373Z,99.90
2023-04-10T21:17:08.180Z,99.90
2023-04-10T21:19:34.939Z,99.90
2023-04-10T21:22:01.777Z,99.90
2023-04-10T21:24:28.893Z,99.90
2023-04-10T21:26:55.614Z,99.90
2023-04-10T21:29:22.448Z,99.90
2023-04-10T21:31:50.498Z,99.90
2023-04-10T21:34:17.489Z,99.90
2023-04-10T21:36:44.202Z,99.90
2023-04-10T21:39:10.970Z,99.90
2023-04-10T21:41:38.655Z,99.90
2023-04-10T21:44:06.313Z,99.90
2023-04-10T21:46:33.790Z,99.90
2023-04-10T21:49:01.103Z,99.90
2023-04-10T21:51:28.326Z,99.90
2023-04-10T21:53:55.230Z,99.90
2023-04-10T21:56:21.999Z,99.90
2023-04-10T21:58:48.730Z,99.90
2023-04-10T22:01:15.425Z,99.90
2023-04-10T22:03:42.317Z,99.90
2023-04-10T22:06:09.250Z,99.90
2023-04-10T22:08:38.336Z,99.90
2023-04-10T22:11:06.047Z,99.90
2023-04-10T22:13:33.005Z,99.90
2023-04-10T22:16:02.224Z,99.90
2023-04-10T22:18:29.362Z,99.90
2023-04-10T22:20:56.168Z,99.90
2023-04-10T22:23:23.082Z,99.90
2023-04-10T22:25:49.940Z,99.90
2023-04-10T22:28:16.674Z,99.90
2023-04-10T22:30:43.388Z,99.90
2023-04-10T22:33:10.534Z,99.90
2023-04-10T22:35:37.642Z,99.90
2023-04-10T22:38:04.363Z,99.90
2023-04-10T22:40:31.497Z,99.90
2023-04-10T22:42:58.190Z,99.90
2023-04-10T22:45:24.865Z,99.90
2023-04-10T22:47:51.618Z,99.90
2023-04-10T22:50:18.501Z,99.90
2023-04-10T22:52:45.239Z,99.90
2023-04-10T22:55:12.139Z,99.90
2023-04-10T22:57:38.920Z,99.90
2023-04-10T23:00:06.130Z,99.90
2023-04-10T23:02:32.986Z,99.90
2023-04-10T23:04:59.798Z,99.90
2023-04-10T23:07:27.742Z,99.90
2023-04-10T23:09:54.550Z,99.90
2023-04-10T23:12:21.237Z,99.90
2023-04-10T23:14:47.985Z,99.90
2023-04-10T23:17:14.811Z,99.90
2023-04-10T23:19:41.507Z,99.90
2023-04-10T23:22:08.178Z,99.90
2023-04-10T23:24:35.004Z,99.90
2023-04-10T23:27:01.849Z,99.90
2023-04-10T23:29:28.537Z,99.90
2023-04-10T23:31:55.293Z,99.90
2023-04-10T23:34:22.094Z,99.90
2023-04-10T23:36:48.877Z,99.90
2023-04-10T23:39:15.752Z,99.90
2023-04-10T23:41:42.751Z,99.90
2023-04-10T23:44:09.524Z,99.90
2023-04-10T23:46:36.307Z,99.90
2023-04-10T23:49:03.054Z,99.90
2023-04-10T23:51:31.952Z,99.90
2023-04-10T23:53:59.104Z,99.90
2023-04-10T23:56:29.250Z,99.90
2023-04-10T23:58:56.676Z,99.90
